createdAt,value
2023-01-13T00:00:09.339Z,7.67
2023-01-13T00:02:35.872Z,7.61
2023-01-13T00:05:02.405Z,7.58
2023-01-13T00:07:28.910Z,7.51
2023-01-13T00:09:55.314Z,7.49
2023-01-13T00:12:21.732Z,7.42
2023-01-13T00:14:48.209Z,7.34
2023-01-13T00:17:14.606Z,7.34
2023-01-13T00:19:41.016Z,7.28
2023-01-13T00:22:07.679Z,7.22
2023-01-13T00:24:34.128Z,7.26
2023-01-13T00:27:00.520Z,7.20
2023-01-13T00:29:27.074Z,7.16
2023-01-13T00:31:53.512Z,7.13
2023-01-13T00:34:19.928Z,7.12
2023-01-13T00:36:46.342Z,7.10
2023-01-13T00:39:12.849Z,7.09
2023-01-13T00:41:57.821Z,7.12
2023-01-13T00:44:24.178Z,7.07
2023-01-13T00:46:50.690Z,7.07
2023-01-13T00:49:17.536Z,7.00
2023-01-13T00:51:43.895Z,6.95
2023-01-13T00:54:10.324Z,6.94
2023-01-13T00:56:41.282Z,6.96
2023-01-13T00:59:11.244Z,6.96
2023-01-13T01:01:37.950Z,6.95
2023-01-13T01:04:04.671Z,6.93
2023-01-13T01:06:31.084Z,6.93
2023-01-13T01:08:57.629Z,6.96
2023-01-13T01:11:29.602Z,7.00
2023-01-13T01:13:58.293Z,7.04
2023-01-13T01:16:28.451Z,7.06
2023-01-13T01:18:55.914Z,7.06
2023-01-13T01:21:24.669Z,7.06
2023-01-13T01:23:51.079Z,7.07
2023-01-13T01:26:19.853Z,7.08
2023-01-13T01:28:46.850Z,7.09
2023-01-13T01:31:16.583Z,7.05
2023-01-13T01:33:43.174Z,7.01
2023-01-13T01:36:12.074Z,6.97
2023-01-13T01:38:38.853Z,7.04
2023-01-13T01:41:05.883Z,7.03
2023-01-13T01:43:59.771Z,7.01
2023-01-13T01:46:28.146Z,7.13
2023-01-13T01:49:22.485Z,7.10
2023-01-13T01:51:57.005Z,7.10
2023-01-13T01:54:33.797Z,7.10
2023-01-13T01:57:00.380Z,7.06
2023-01-13T01:59:29.875Z,7.05
2023-01-13T02:01:56.422Z,7.04
2023-01-13T02:04:27.968Z,6.96
2023-01-13T02:06:56.673Z,6.91
2023-01-13T02:09:25.927Z,6.91
2023-01-13T02:12:11.019Z,6.93
2023-01-13T02:14:38.690Z,6.87
2023-01-13T02:17:23.851Z,6.88
2023-01-13T02:20:02.296Z,6.80
2023-01-13T02:22:53.642Z,6.82
2023-01-13T02:25:38.675Z,6.86
2023-01-13T02:29:06.994Z,6.87
2023-01-13T02:31:44.497Z,6.81
2023-01-13T02:34:29.819Z,6.84
2023-01-13T02:37:28.655Z,6.87
2023-01-13T02:39:59.731Z,6.91
2023-01-13T02:42:52.098Z,6.89
2023-01-13T02:45:28.045Z,6.98
2023-01-13T02:47:57.844Z,6.95
2023-01-13T02:50:37.391Z,6.92
2023-01-13T02:53:17.708Z,6.92
2023-01-13T02:55:48.496Z,6.95
2023-01-13T02:58:18.765Z,6.97
2023-01-13T03:00:46.594Z,6.91
2023-01-13T03:03:13.906Z,6.89
2023-01-13T03:05:42.671Z,6.95
2023-01-13T03:08:39.711Z,7.05
2023-01-13T03:11:09.609Z,7.04
2023-01-13T03:14:00.787Z,7.01
2023-01-13T03:16:47.986Z,6.94
2023-01-13T03:19:30.330Z,6.91
2023-01-13T03:22:22.836Z,6.87
2023-01-13T03:25:03.160Z,6.85
2023-01-13T03:27:46.021Z,6.80
2023-01-13T03:30:29.391Z,6.85
2023-01-13T03:33:02.584Z,6.86
2023-01-13T03:35:33.409Z,6.84
2023-01-13T03:38:06.272Z,6.76
2023-01-13T03:40:36.423Z,6.81
2023-01-13T03:43:28.730Z,6.89
2023-01-13T03:45:59.114Z,6.97
2023-01-13T03:48:27.712Z,6.99
2023-01-13T03:50:58.461Z,7.01
2023-01-13T03:53:33.220Z,7.01
2023-01-13T03:56:11.653Z,7.01
2023-01-13T03:58:42.490Z,7.00
2023-01-13T04:01:17.042Z,6.96
2023-01-13T04:03:49.558Z,6.94
2023-01-13T04:06:42.094Z,6.92
2023-01-13T04:09:17.695Z,6.90
2023-01-13T04:11:49.499Z,6.80
2023-01-13T04:14:19.333Z,6.75
2023-01-13T04:16:45.848Z,6.70
2023-01-13T04:19:12.413Z,6.78
2023-01-13T04:21:38.967Z,6.80
2023-01-13T04:24:05.574Z,6.81
2023-01-13T04:26:31.982Z,6.79
2023-01-13T04:28:58.402Z,6.71
2023-01-13T04:31:24.851Z,6.64
2023-01-13T04:33:51.399Z,6.63
2023-01-13T04:36:19.628Z,6.64
2023-01-13T04:38:46.109Z,6.71
2023-01-13T04:41:12.560Z,6.63
2023-01-13T04:43:38.983Z,6.62
2023-01-13T04:46:05.566Z,6.64
2023-01-13T04:48:32.038Z,6.58
2023-01-13T04:50:58.455Z,6.56
2023-01-13T04:53:24.929Z,6.54
2023-01-13T04:55:52.082Z,6.51
2023-01-13T04:58:18.818Z,6.54
2023-01-13T05:00:45.214Z,6.59
2023-01-13T05:03:11.898Z,6.61
2023-01-13T05:05:38.480Z,6.60
2023-01-13T05:08:05.466Z,6.63
2023-01-13T05:10:32.084Z,6.64
2023-01-13T05:13:17.545Z,6.66
2023-01-13T05:16:04.654Z,6.65
2023-01-13T05:18:32.390Z,6.66
2023-01-13T05:20:58.863Z,6.66
2023-01-13T05:23:43.770Z,6.66
2023-01-13T05:26:10.401Z,6.67
2023-01-13T05:28:36.853Z,6.64
2023-01-13T05:31:03.431Z,6.61
2023-01-13T05:33:30.062Z,6.62
2023-01-13T05:35:56.496Z,6.68
2023-01-13T05:38:22.972Z,6.72
2023-01-13T05:41:08.088Z,6.65
2023-01-13T05:43:34.863Z,6.61
2023-01-13T05:46:07.976Z,6.54
2023-01-13T05:48:37.131Z,6.52
2023-01-13T05:51:05.750Z,6.59
2023-01-13T05:53:32.680Z,6.55
2023-01-13T05:55:59.588Z,6.51
2023-01-13T05:58:28.045Z,6.49
2023-01-13T06:01:00.767Z,6.45
2023-01-13T06:03:27.280Z,6.49
2023-01-13T06:05:58.636Z,6.44
2023-01-13T06:08:25.750Z,6.42
2023-01-13T06:10:52.321Z,6.41
2023-01-13T06:13:18.859Z,6.47
2023-01-13T06:15:45.384Z,6.49
2023-01-13T06:18:11.917Z,6.44
2023-01-13T06:20:38.351Z,6.38
2023-01-13T06:23:08.535Z,6.41
2023-01-13T06:25:44.389Z,6.46
2023-01-13T06:28:10.955Z,6.51
2023-01-13T06:30:46.658Z,6.60
2023-01-13T06:33:16.147Z,6.62
2023-01-13T06:35:50.054Z,6.63
2023-01-13T06:38:20.210Z,6.66
2023-01-13T06:40:47.219Z,6.67
2023-01-13T06:43:17.394Z,6.71
2023-01-13T06:45:54.375Z,6.73
2023-01-13T06:48:35.544Z,6.75
2023-01-13T06:51:03.624Z,6.77
2023-01-13T06:53:30.346Z,6.74
2023-01-13T06:55:56.787Z,6.73
2023-01-13T06:58:23.473Z,6.75
2023-01-13T07:00:51.485Z,6.76
2023-01-13T07:03:19.864Z,6.79
2023-01-13T07:05:53.437Z,6.78
2023-01-13T07:08:20.490Z,6.81
2023-01-13T07:10:46.867Z,6.82
2023-01-13T07:13:32.182Z,6.87
2023-01-13T07:16:05.087Z,6.86
2023-01-13T07:18:33.092Z,6.85
2023-01-13T07:21:02.349Z,6.87
2023-01-13T07:23:30.680Z,6.91
2023-01-13T07:25:58.756Z,6.96
2023-01-13T07:28:26.625Z,6.96
2023-01-13T07:30:53.332Z,6.94
2023-01-13T07:33:20.436Z,7.00
2023-01-13T07:35:48.063Z,7.02
2023-01-13T07:38:15.426Z,7.03
2023-01-13T07:40:41.905Z,7.06
2023-01-13T07:43:31.069Z,7.11
2023-01-13T07:46:06.449Z,7.08
2023-01-13T07:48:34.621Z,7.09
2023-01-13T07:51:02.629Z,7.16
2023-01-13T07:53:29.111Z,7.16
2023-01-13T07:55:57.108Z,7.17
2023-01-13T07:58:24.838Z,7.21
2023-01-13T08:00:52.210Z,7.24
2023-01-13T08:03:18.839Z,7.21
2023-01-13T08:05:45.730Z,7.22
2023-01-13T08:08:12.634Z,7.22
2023-01-13T08:10:39.204Z,7.27
2023-01-13T08:13:19.955Z,7.32
2023-01-13T08:16:02.476Z,7.29
2023-01-13T08:18:29.789Z,7.31
2023-01-13T08:20:56.224Z,7.34
2023-01-13T08:23:23.482Z,7.36
2023-01-13T08:25:50.199Z,7.38
2023-01-13T08:28:17.544Z,7.41
2023-01-13T08:30:44.299Z,7.45
2023-01-13T08:33:12.973Z,7.43
2023-01-13T08:35:41.483Z,7.44
2023-01-13T08:38:08.255Z,7.47
2023-01-13T08:40:35.106Z,7.43
2023-01-13T08:43:01.715Z,7.44
2023-01-13T08:45:28.310Z,7.39
2023-01-13T08:47:54.759Z,7.37
2023-01-13T08:50:21.199Z,7.33
2023-01-13T08:52:47.686Z,7.27
2023-01-13T08:55:14.075Z,7.24
2023-01-13T08:57:40.644Z,7.21
2023-01-13T09:00:08.057Z,7.19
2023-01-13T09:02:34.529Z,7.15
2023-01-13T09:05:03.644Z,7.10
2023-01-13T09:07:31.087Z,7.07
2023-01-13T09:09:57.555Z,7.08
2023-01-13T09:12:43.019Z,7.08
2023-01-13T09:15:10.482Z,7.05
2023-01-13T09:17:36.933Z,7.05
2023-01-13T09:20:03.931Z,7.05
2023-01-13T09:22:30.464Z,7.06
2023-01-13T09:24:57.055Z,7.06
2023-01-13T09:27:23.925Z,7.06
2023-01-13T09:29:50.524Z,7.00
2023-01-13T09:32:17.219Z,6.97
2023-01-13T09:35:02.244Z,6.93
2023-01-13T09:37:40.427Z,6.91
2023-01-13T09:40:20.192Z,6.91
2023-01-13T09:43:12.354Z,6.90
2023-01-13T09:46:05.418Z,6.93
2023-01-13T09:48:51.913Z,6.96
2023-01-13T09:51:43.401Z,7.01
2023-01-13T09:54:32.172Z,7.06
2023-01-13T09:57:01.470Z,7.11
2023-01-13T09:59:34.663Z,7.14
2023-01-13T10:02:39.650Z,7.18
2023-01-13T10:05:16.334Z,7.18
2023-01-13T10:07:51.342Z,7.21
2023-01-13T10:10:42.451Z,7.23
2023-01-13T10:13:20.781Z,7.27
2023-01-13T10:15:56.387Z,7.25
2023-01-13T10:18:35.278Z,7.24
2023-01-13T10:21:26.335Z,7.27
2023-01-13T10:24:07.429Z,7.26
2023-01-13T10:26:34.286Z,7.27
2023-01-13T10:29:01.001Z,7.32
2023-01-13T10:31:27.476Z,7.31
2023-01-13T10:34:04.187Z,7.36
2023-01-13T10:36:30.623Z,7.41
2023-01-13T10:39:23.412Z,7.49
2023-01-13T10:42:00.128Z,7.50
2023-01-13T10:44:26.926Z,7.50
2023-01-13T10:46:56.517Z,7.50
2023-01-13T10:49:34.221Z,7.49
2023-01-13T10:52:02.643Z,7.47
2023-01-13T10:54:29.872Z,7.44
2023-01-13T10:57:19.710Z,7.47
2023-01-13T10:59:46.701Z,7.54
2023-01-13T11:02:30.082Z,7.61
2023-01-13T11:04:57.876Z,7.65
2023-01-13T11:07:35.912Z,7.68
2023-01-13T11:10:16.528Z,7.73
2023-01-13T11:13:01.978Z,7.74
2023-01-13T11:15:37.048Z,7.75
2023-01-13T11:18:10.525Z,7.76
2023-01-13T11:20:41.464Z,7.76
2023-01-13T11:23:17.685Z,7.78
2023-01-13T11:25:48.780Z,7.76
2023-01-13T11:28:20.891Z,7.76
2023-01-13T11:31:16.776Z,7.81
2023-01-13T11:33:50.953Z,7.87
2023-01-13T11:36:20.726Z,7.97
2023-01-13T11:39:01.376Z,8.05
2023-01-13T11:42:13.581Z,8.12
2023-01-13T11:44:46.413Z,8.14
2023-01-13T11:47:13.948Z,8.21
2023-01-13T11:49:40.955Z,8.22
2023-01-13T11:52:23.612Z,8.26
2023-01-13T11:55:16.407Z,8.28
2023-01-13T11:58:02.082Z,8.30
2023-01-13T12:00:46.752Z,8.32
2023-01-13T12:03:16.191Z,8.34
2023-01-13T12:05:51.121Z,8.31
2023-01-13T12:08:26.089Z,8.32
2023-01-13T12:11:05.847Z,8.33
2023-01-13T12:13:44.216Z,8.34
2023-01-13T12:16:19.390Z,8.36
2023-01-13T12:18:45.788Z,8.35
2023-01-13T12:21:20.607Z,8.38
2023-01-13T12:24:22.822Z,8.35
2023-01-13T12:26:55.708Z,8.35
2023-01-13T12:29:33.161Z,8.37
2023-01-13T12:32:02.068Z,8.40
2023-01-13T12:35:17.014Z,8.40
2023-01-13T12:37:55.124Z,8.44
2023-01-13T12:40:34.101Z,8.47
2023-01-13T12:43:22.274Z,8.46
2023-01-13T12:45:48.705Z,8.49
2023-01-13T12:48:49.004Z,8.53
2023-01-13T12:51:33.189Z,8.56
2023-01-13T12:54:23.426Z,8.60
2023-01-13T12:56:49.941Z,8.62
2023-01-13T12:59:21.828Z,8.67
2023-01-13T13:02:20.716Z,8.69
2023-01-13T13:04:51.666Z,8.72
2023-01-13T13:07:43.327Z,8.71
2023-01-13T13:10:24.448Z,8.71
2023-01-13T13:13:20.425Z,8.69
2023-01-13T13:15:49.475Z,8.66
2023-01-13T13:18:23.841Z,8.68
2023-01-13T13:21:07.417Z,8.71
2023-01-13T13:23:48.042Z,8.71
2023-01-13T13:26:30.909Z,8.74
2023-01-13T13:29:28.553Z,8.74
2023-01-13T13:32:13.521Z,8.79
2023-01-13T13:35:16.612Z,8.80
2023-01-13T13:38:16.820Z,8.83
2023-01-13T13:41:05.790Z,8.87
2023-01-13T13:44:04.060Z,8.85
2023-01-13T13:46:46.817Z,8.82
2023-01-13T13:49:39.858Z,8.82
2023-01-13T13:52:11.185Z,8.81
2023-01-13T13:54:43.219Z,8.79
2023-01-13T13:57:22.605Z,8.76
2023-01-13T13:59:55.062Z,8.77
2023-01-13T14:02:30.459Z,8.74
2023-01-13T14:05:21.751Z,8.75
2023-01-13T14:07:50.753Z,8.76
2023-01-13T14:10:39.769Z,8.74
2023-01-13T14:13:27.600Z,8.72
2023-01-13T14:16:06.306Z,8.70
2023-01-13T14:18:40.643Z,8.68
2023-01-13T14:21:24.155Z,8.69
2023-01-13T14:23:57.760Z,8.68
2023-01-13T14:26:30.918Z,8.66
2023-01-13T14:29:00.372Z,8.65
2023-01-13T14:31:28.107Z,8.65
2023-01-13T14:33:58.287Z,8.64
2023-01-13T14:36:33.823Z,8.63
2023-01-13T14:39:03.293Z,8.64
2023-01-13T14:41:41.891Z,8.66
2023-01-13T14:44:34.241Z,8.64
2023-01-13T14:47:05.160Z,8.64
2023-01-13T14:49:42.457Z,8.63
2023-01-13T14:52:19.168Z,8.65
2023-01-13T14:54:51.512Z,8.66
2023-01-13T14:57:32.169Z,8.63
2023-01-13T15:00:13.411Z,8.56
2023-01-13T15:02:50.234Z,8.54
2023-01-13T15:05:19.698Z,8.55
2023-01-13T15:08:12.350Z,8.54
2023-01-13T15:10:47.152Z,8.53
2023-01-13T15:13:49.708Z,8.54
2023-01-13T15:16:25.109Z,8.52
2023-01-13T15:18:52.879Z,8.51
2023-01-13T15:21:19.586Z,8.49
2023-01-13T15:23:47.334Z,8.46
2023-01-13T15:26:19.790Z,8.47
2023-01-13T15:28:46.836Z,8.45
2023-01-13T15:31:13.759Z,8.41
2023-01-13T15:33:40.364Z,8.42
2023-01-13T15:36:27.706Z,8.41
2023-01-13T15:38:54.581Z,8.46
2023-01-13T15:41:40.989Z,8.39
2023-01-13T15:44:28.400Z,8.36
2023-01-13T15:46:55.315Z,8.28
2023-01-13T15:49:25.367Z,8.33
2023-01-13T15:51:52.046Z,8.30
2023-01-13T15:54:22.711Z,8.26
2023-01-13T15:56:49.244Z,8.17
2023-01-13T15:59:20.842Z,8.13
2023-01-13T16:01:47.404Z,8.12
2023-01-13T16:04:13.922Z,8.15
2023-01-13T16:06:40.897Z,8.15
2023-01-13T16:09:07.608Z,8.14
2023-01-13T16:11:34.109Z,8.10
2023-01-13T16:14:00.518Z,8.08
2023-01-13T16:16:28.583Z,8.10
2023-01-13T16:18:56.209Z,8.11
2023-01-13T16:21:23.192Z,8.18
2023-01-13T16:23:51.216Z,8.19
2023-01-13T16:26:21.741Z,8.18
2023-01-13T16:28:49.745Z,8.17
2023-01-13T16:31:19.321Z,8.20
2023-01-13T16:33:45.818Z,8.20
2023-01-13T16:36:17.505Z,8.15
2023-01-13T16:38:44.327Z,8.11
2023-01-13T16:41:10.799Z,8.08
2023-01-13T16:43:37.541Z,8.04
2023-01-13T16:46:17.523Z,7.98
2023-01-13T16:48:44.363Z,7.95
2023-01-13T16:51:11.982Z,7.94
2023-01-13T16:53:38.520Z,7.95
2023-01-13T16:56:25.566Z,7.87
2023-01-13T16:58:53.582Z,7.75
2023-01-13T17:01:29.011Z,7.60
2023-01-13T17:03:56.194Z,7.47
2023-01-13T17:06:42.972Z,7.39
2023-01-13T17:09:21.113Z,7.26
2023-01-13T17:11:47.733Z,7.10
2023-01-13T17:14:18.544Z,6.98
2023-01-13T17:16:46.489Z,6.93
2023-01-13T17:19:13.491Z,6.85
2023-01-13T17:21:40.037Z,6.84
2023-01-13T17:24:07.866Z,6.81
2023-01-13T17:26:43.981Z,6.79
2023-01-13T17:29:14.090Z,6.81
2023-01-13T17:31:40.932Z,6.80
2023-01-13T17:34:08.191Z,6.77
2023-01-13T17:36:34.571Z,6.74
2023-01-13T17:39:01.080Z,6.68
2023-01-13T17:41:27.694Z,6.63
2023-01-13T17:43:54.201Z,6.58
2023-01-13T17:46:23.045Z,6.52
2023-01-13T17:48:51.064Z,6.45
2023-01-13T17:51:18.645Z,6.38
2023-01-13T17:53:45.536Z,6.34
2023-01-13T17:56:14.550Z,6.33
2023-01-13T17:58:45.501Z,6.33
2023-01-13T18:01:18.670Z,6.31
2023-01-13T18:03:45.910Z,6.26
2023-01-13T18:06:21.849Z,6.22
2023-01-13T18:08:48.617Z,6.21
2023-01-13T18:11:19.988Z,6.17
2023-01-13T18:13:47.967Z,6.18
2023-01-13T18:16:17.567Z,6.13
2023-01-13T18:18:46.567Z,6.12
2023-01-13T18:21:40.638Z,6.14
2023-01-13T18:24:30.593Z,6.10
2023-01-13T18:27:15.902Z,6.08
2023-01-13T18:29:42.712Z,6.05
2023-01-13T18:32:09.287Z,6.05
2023-01-13T18:34:36.446Z,6.04
2023-01-13T18:37:03.023Z,6.07
2023-01-13T18:39:29.514Z,6.12
2023-01-13T18:42:14.607Z,6.14
2023-01-13T18:44:41.169Z,6.23
2023-01-13T18:47:07.651Z,6.21
2023-01-13T18:49:34.036Z,6.28
2023-01-13T18:52:00.735Z,6.37
2023-01-13T18:54:27.187Z,6.46
2023-01-13T18:56:53.592Z,6.47
2023-01-13T18:59:20.193Z,6.52
2023-01-13T19:01:46.726Z,6.60
2023-01-13T19:04:15.547Z,6.60
2023-01-13T19:06:53.634Z,6.59
2023-01-13T19:09:28.756Z,6.61
2023-01-13T19:11:56.887Z,6.62
2023-01-13T19:14:40.368Z,6.64
2023-01-13T19:17:09.740Z,6.60
2023-01-13T19:19:40.700Z,6.52
2023-01-13T19:22:07.514Z,6.55
2023-01-13T19:24:34.309Z,6.58
2023-01-13T19:27:00.844Z,6.59
2023-01-13T19:29:27.363Z,6.61
2023-01-13T19:31:53.803Z,6.63
2023-01-13T19:34:20.330Z,6.60
2023-01-13T19:36:46.765Z,6.57
2023-01-13T19:39:14.024Z,6.61
2023-01-13T19:41:59.024Z,6.64
2023-01-13T19:44:43.827Z,6.57
2023-01-13T19:47:10.252Z,6.68
2023-01-13T19:49:36.650Z,6.75
2023-01-13T19:52:03.186Z,6.76
2023-01-13T19:54:29.756Z,6.71
2023-01-13T19:56:56.189Z,6.66
2023-01-13T19:59:29.236Z,6.67
2023-01-13T20:02:03.772Z,6.68
2023-01-13T20:04:38.314Z,6.71
2023-01-13T20:07:06.457Z,6.81
2023-01-13T20:09:34.362Z,6.80
2023-01-13T20:12:09.038Z,6.80
2023-01-13T20:14:35.573Z,6.76
2023-01-13T20:17:02.072Z,6.76
2023-01-13T20:19:28.452Z,6.79
2023-01-13T20:21:54.848Z,6.77
2023-01-13T20:24:21.385Z,6.76
2023-01-13T20:26:47.783Z,6.82
2023-01-13T20:29:14.189Z,6.81
2023-01-13T20:31:40.656Z,6.80
2023-01-13T20:34:07.255Z,6.92
2023-01-13T20:36:37.392Z,6.87
2023-01-13T20:39:06.194Z,6.78
2023-01-13T20:41:51.187Z,6.77
2023-01-13T20:44:17.878Z,6.89
2023-01-13T20:46:44.631Z,6.93
2023-01-13T20:49:12.386Z,7.01
2023-01-13T20:51:38.784Z,7.03
2023-01-13T20:54:05.352Z,6.96
2023-01-13T20:56:31.923Z,6.90
2023-01-13T20:58:58.524Z,6.89
2023-01-13T21:01:25.360Z,6.79
2023-01-13T21:03:55.344Z,6.71
2023-01-13T21:06:21.821Z,6.68
2023-01-13T21:08:48.491Z,6.69
2023-01-13T21:11:17.883Z,6.71
2023-01-13T21:14:03.089Z,6.68
2023-01-13T21:16:29.540Z,6.78
2023-01-13T21:19:07.986Z,6.74
2023-01-13T21:21:34.471Z,6.71
2023-01-13T21:24:00.943Z,6.71
2023-01-13T21:26:27.488Z,6.71
2023-01-13T21:28:58.051Z,6.67
2023-01-13T21:31:26.935Z,6.67
2023-01-13T21:33:54.833Z,6.69
2023-01-13T21:36:21.631Z,6.64
2023-01-13T21:38:55.885Z,6.68
2023-01-13T21:41:45.461Z,6.79
2023-01-13T21:44:35.349Z,6.68
2023-01-13T21:47:20.353Z,6.61
2023-01-13T21:49:46.986Z,6.55
2023-01-13T21:52:14.929Z,6.58
2023-01-13T21:55:00.283Z,6.54
2023-01-13T21:57:27.735Z,6.52
2023-01-13T21:59:54.318Z,6.58
2023-01-13T22:02:35.363Z,6.65
2023-01-13T22:05:03.980Z,6.60
2023-01-13T22:07:32.527Z,6.58
2023-01-13T22:09:59.483Z,6.57
2023-01-13T22:12:26.714Z,6.61
2023-01-13T22:14:54.411Z,6.72
2023-01-13T22:17:23.740Z,6.71
2023-01-13T22:19:52.814Z,6.80
2023-01-13T22:22:20.456Z,6.84
2023-01-13T22:24:49.271Z,6.90
2023-01-13T22:27:21.295Z,6.91
2023-01-13T22:29:49.511Z,6.88
2023-01-13T22:32:16.986Z,6.90
2023-01-13T22:34:43.855Z,6.91
2023-01-13T22:37:10.556Z,6.92
2023-01-13T22:39:37.039Z,6.89
2023-01-13T22:42:04.274Z,6.91
2023-01-13T22:44:30.761Z,7.00
2023-01-13T22:46:57.173Z,6.90
2023-01-13T22:49:23.689Z,6.87
2023-01-13T22:51:50.183Z,6.86
2023-01-13T22:54:18.556Z,6.79
2023-01-13T22:56:45.011Z,6.76
2023-01-13T22:59:13.413Z,6.76
2023-01-13T23:01:42.180Z,6.69
2023-01-13T23:04:15.108Z,6.65
2023-01-13T23:06:41.714Z,6.71
2023-01-13T23:09:08.146Z,6.75
2023-01-13T23:11:35.243Z,6.82
2023-01-13T23:14:04.674Z,6.81
2023-01-13T23:16:33.726Z,6.79
2023-01-13T23:19:00.197Z,6.81
2023-01-13T23:21:29.439Z,6.82
2023-01-13T23:23:58.654Z,6.81
2023-01-13T23:26:26.557Z,6.80
2023-01-13T23:28:53.137Z,6.79
2023-01-13T23:31:22.005Z,6.81
2023-01-13T23:33:49.110Z,6.85
2023-01-13T23:36:19.517Z,6.88
2023-01-13T23:38:46.315Z,6.91
2023-01-13T23:41:15.727Z,6.91
2023-01-13T23:43:42.720Z,6.86
2023-01-13T23:46:12.414Z,6.85
2023-01-13T23:48:39.409Z,6.79
2023-01-13T23:51:09.103Z,6.85
2023-01-13T23:53:40.206Z,6.85
2023-01-13T23:56:10.162Z,6.81
2023-01-13T23:58:36.615Z,6.81
